sensor_id;sensor_type;location;lat;lon;timestamp;temperature;humidity
41668;DHT22;27356;50.920;5.350;2023-04-15T00:00:49;7.60;99.90
41668;DHT22;27356;50.920;5.350;2023-04-15T00:03:16;7.60;99.90
41668;DHT22;27356;50.920;5.350;2023-04-15T00:05:43;7.50;99.90
41668;DHT22;27356;50.920;5.350;2023-04-15T00:08:09;7.40;99.90
41668;DHT22;27356;50.920;5.350;2023-04-15T00:10:34;7.40;99.90
41668;DHT22;27356;50.920;5.350;2023-04-15T00:13:00;7.40;99.90
41668;DHT22;27356;50.920;5.350;2023-04-15T00:15:27;7.40;99.90
41668;DHT22;27356;50.920;5.350;2023-04-15T00:17:52;7.30;99.90
41668;DHT22;27356;50.920;5.350;2023-04-15T00:20:18;7.30;99.90
41668;DHT22;27356;50.920;5.350;2023-04-15T00:22:44;7.20;99.90
41668;DHT22;27356;50.920;5.350;2023-04-15T00:25:10;7.30;99.90
41668;DHT22;27356;50.920;5.350;2023-04-15T00:27:36;7.40;99.90
41668;DHT22;27356;50.920;5.350;2023-04-15T00:30:03;7.50;99.90
41668;DHT22;27356;50.920;5.350;2023-04-15T00:32:29;7.40;99.90
41668;DHT22;27356;50.920;5.350;2023-04-15T00:34:55;7.40;99.90
41668;DHT22;27356;50.920;5.350;2023-04-15T00:37:21;7.40;99.90
41668;DHT22;27356;50.920;5.350;2023-04-15T00:39:48;7.50;99.90
41668;DHT22;27356;50.920;5.350;2023-04-15T00:42:14;7.60;99.90
41668;DHT22;27356;50.920;5.350;2023-04-15T00:44:40;7.70;99.90
41668;DHT22;27356;50.920;5.350;2023-04-15T00:47:05;7.70;99.90
41668;DHT22;27356;50.920;5.350;2023-04-15T00:49:32;7.70;99.90
41668;DHT22;27356;50.920;5.350;2023-04-15T00:51:57;7.60;99.90
41668;DHT22;27356;50.920;5.350;2023-04-15T00:54:23;7.70;99.90
41668;DHT22;27356;50.920;5.350;2023-04-15T00:56:49;7.70;99.90
41668;DHT22;27356;50.920;5.350;2023-04-15T00:59:16;7.80;99.90
41668;DHT22;27356;50.920;5.350;2023-04-15T01:01:43;7.80;99.90
41668;DHT22;27356;50.920;5.350;2023-04-15T01:04:09;8.00;99.90
41668;DHT22;27356;50.920;5.350;2023-04-15T01:06:36;8.00;99.90
41668;DHT22;27356;50.920;5.350;2023-04-15T01:09:02;8.10;99.90
41668;DHT22;27356;50.920;5.350;2023-04-15T01:11:28;8.20;99.90
41668;DHT22;27356;50.920;5.350;2023-04-15T01:13:55;8.30;99.90
41668;DHT22;27356;50.920;5.350;2023-04-15T01:16:23;8.20;99.90
41668;DHT22;27356;50.920;5.350;2023-04-15T01:18:48;8.30;99.90
41668;DHT22;27356;50.920;5.350;2023-04-15T01:21:14;8.20;99.90
41668;DHT22;27356;50.920;5.350;2023-04-15T01:23:40;8.20;99.90
41668;DHT22;27356;50.920;5.350;2023-04-15T01:26:07;8.20;99.90
41668;DHT22;27356;50.920;5.350;2023-04-15T01:28:33;8.20;99.90
41668;DHT22;27356;50.920;5.350;2023-04-15T01:31:09;8.20;99.90
41668;DHT22;27356;50.920;5.350;2023-04-15T01:33:35;8.30;99.90
41668;DHT22;27356;50.920;5.350;2023-04-15T01:36:01;8.30;99.90
41668;DHT22;27356;50.920;5.350;2023-04-15T01:38:28;8.30;99.90
41668;DHT22;27356;50.920;5.350;2023-04-15T01:40:55;8.40;99.90
41668;DHT22;27356;50.920;5.350;2023-04-15T01:43:20;8.40;99.90
41668;DHT22;27356;50.920;5.350;2023-04-15T01:45:46;8.50;99.90
41668;DHT22;27356;50.920;5.350;2023-04-15T01:48:12;8.60;99.90
41668;DHT22;27356;50.920;5.350;2023-04-15T01:50:37;8.40;99.90
41668;DHT22;27356;50.920;5.350;2023-04-15T01:53:03;8.40;99.90
41668;DHT22;27356;50.920;5.350;2023-04-15T01:55:29;8.50;99.90
41668;DHT22;27356;50.920;5.350;2023-04-15T01:57:55;8.60;99.90
41668;DHT22;27356;50.920;5.350;2023-04-15T02:00:21;8.60;99.90
41668;DHT22;27356;50.920;5.350;2023-04-15T02:02:47;8.40;99.90
41668;DHT22;27356;50.920;5.350;2023-04-15T02:05:14;8.40;99.90
41668;DHT22;27356;50.920;5.350;2023-04-15T02:07:41;8.40;99.90
41668;DHT22;27356;50.920;5.350;2023-04-15T02:10:08;8.50;99.90
41668;DHT22;27356;50.920;5.350;2023-04-15T02:12:34;8.50;99.90
41668;DHT22;27356;50.920;5.350;2023-04-15T02:15:00;8.50;99.90
41668;DHT22;27356;50.920;5.350;2023-04-15T02:17:26;8.60;99.90
41668;DHT22;27356;50.920;5.350;2023-04-15T02:19:52;8.50;99.90
41668;DHT22;27356;50.920;5.350;2023-04-15T02:22:20;8.50;99.90
41668;DHT22;27356;50.920;5.350;2023-04-15T02:24:46;8.50;99.90
41668;DHT22;27356;50.920;5.350;2023-04-15T02:27:15;8.50;99.90
41668;DHT22;27356;50.920;5.350;2023-04-15T02:29:43;8.60;99.90
41668;DHT22;27356;50.920;5.350;2023-04-15T02:32:09;8.70;99.90
41668;DHT22;27356;50.920;5.350;2023-04-15T02:34:36;8.70;99.90
41668;DHT22;27356;50.920;5.350;2023-04-15T02:37:06;8.60;99.90
41668;DHT22;27356;50.920;5.350;2023-04-15T02:39:32;8.60;99.90
41668;DHT22;27356;50.920;5.350;2023-04-15T02:41:57;8.70;99.90
41668;DHT22;27356;50.920;5.350;2023-04-15T02:44:25;8.60;99.90
41668;DHT22;27356;50.920;5.350;2023-04-15T02:46:52;8.50;99.90
41668;DHT22;27356;50.920;5.350;2023-04-15T02:49:19;8.50;99.90
41668;DHT22;27356;50.920;5.350;2023-04-15T02:51:45;8.60;99.90
41668;DHT22;27356;50.920;5.350;2023-04-15T02:54:17;8.50;99.90
41668;DHT22;27356;50.920;5.350;2023-04-15T02:56:43;8.50;99.90
41668;DHT22;27356;50.920;5.350;2023-04-15T02:59:09;8.50;99.90
41668;DHT22;27356;50.920;5.350;2023-04-15T03:01:35;8.50;99.90
41668;DHT22;27356;50.920;5.350;2023-04-15T03:04:00;8.60;99.90
41668;DHT22;27356;50.920;5.350;2023-04-15T03:06:26;8.60;99.90
41668;DHT22;27356;50.920;5.350;2023-04-15T03:08:52;8.50;99.90
41668;DHT22;27356;50.920;5.350;2023-04-15T03:11:18;8.50;99.90
41668;DHT22;27356;50.920;5.350;2023-04-15T03:13:44;8.40;99.90
41668;DHT22;27356;50.920;5.350;2023-04-15T03:16:10;8.40;99.90
41668;DHT22;27356;50.920;5.350;2023-04-15T03:18:36;8.50;99.90
41668;DHT22;27356;50.920;5.350;2023-04-15T03:21:02;8.50;99.90
41668;DHT22;27356;50.920;5.350;2023-04-15T03:23:29;8.60;99.90
41668;DHT22;27356;50.920;5.350;2023-04-15T03:25:55;8.60;99.90
41668;DHT22;27356;50.920;5.350;2023-04-15T03:28:22;8.60;99.90
41668;DHT22;27356;50.920;5.350;2023-04-15T03:30:48;8.60;99.90
41668;DHT22;27356;50.920;5.350;2023-04-15T03:33:14;8.60;99.90
41668;DHT22;27356;50.920;5.350;2023-04-15T03:35:39;8.60;99.90
41668;DHT22;27356;50.920;5.350;2023-04-15T03:38:05;8.70;99.90
41668;DHT22;27356;50.920;5.350;2023-04-15T03:40:31;8.70;99.90
41668;DHT22;27356;50.920;5.350;2023-04-15T03:42:57;8.70;99.90
41668;DHT22;27356;50.920;5.350;2023-04-15T03:45:22;8.50;99.90
41668;DHT22;27356;50.920;5.350;2023-04-15T03:47:48;8.50;99.90
41668;DHT22;27356;50.920;5.350;2023-04-15T03:50:14;8.40;99.90
41668;DHT22;27356;50.920;5.350;2023-04-15T03:52:40;8.50;99.90
41668;DHT22;27356;50.920;5.350;2023-04-15T03:55:05;8.50;99.90
41668;DHT22;27356;50.920;5.350;2023-04-15T03:57:33;8.30;99.90
41668;DHT22;27356;50.920;5.350;2023-04-15T04:00:03;8.40;99.90
41668;DHT22;27356;50.920;5.350;2023-04-15T04:02:29;8.30;99.90
41668;DHT22;27356;50.920;5.350;2023-04-15T04:04:55;8.40;99.90
41668;DHT22;27356;50.920;5.350;2023-04-15T04:07:22;8.50;99.90
41668;DHT22;27356;50.920;5.350;2023-04-15T04:09:48;8.50;99.90
41668;DHT22;27356;50.920;5.350;2023-04-15T04:12:14;8.40;99.90
41668;DHT22;27356;50.920;5.350;2023-04-15T04:14:40;8.50;99.90
41668;DHT22;27356;50.920;5.350;2023-04-15T04:17:05;8.40;99.90
41668;DHT22;27356;50.920;5.350;2023-04-15T04:19:31;8.50;99.90
41668;DHT22;27356;50.920;5.350;2023-04-15T04:21:56;8.50;99.90
41668;DHT22;27356;50.920;5.350;2023-04-15T04:24:22;8.60;99.90
41668;DHT22;27356;50.920;5.350;2023-04-15T04:26:48;8.60;99.90
41668;DHT22;27356;50.920;5.350;2023-04-15T04:29:13;8.60;99.90
41668;DHT22;27356;50.920;5.350;2023-04-15T04:31:39;8.80;99.90
41668;DHT22;27356;50.920;5.350;2023-04-15T04:34:05;8.80;99.90
41668;DHT22;27356;50.920;5.350;2023-04-15T04:36:30;8.90;99.90
41668;DHT22;27356;50.920;5.350;2023-04-15T04:38:56;8.90;99.90
41668;DHT22;27356;50.920;5.350;2023-04-15T04:41:22;8.80;99.90
41668;DHT22;27356;50.920;5.350;2023-04-15T04:43:48;8.70;99.90
41668;DHT22;27356;50.920;5.350;2023-04-15T04:46:13;8.70;99.90
41668;DHT22;27356;50.920;5.350;2023-04-15T04:48:39;8.90;99.90
41668;DHT22;27356;50.920;5.350;2023-04-15T04:51:05;8.80;99.90
41668;DHT22;27356;50.920;5.350;2023-04-15T04:53:32;8.80;99.90
41668;DHT22;27356;50.920;5.350;2023-04-15T04:55:57;8.50;99.90
41668;DHT22;27356;50.920;5.350;2023-04-15T04:58:23;8.50;99.90
41668;DHT22;27356;50.920;5.350;2023-04-15T05:00:49;8.60;99.90
41668;DHT22;27356;50.920;5.350;2023-04-15T05:03:15;8.50;99.90
41668;DHT22;27356;50.920;5.350;2023-04-15T05:05:41;8.50;99.90
41668;DHT22;27356;50.920;5.350;2023-04-15T05:08:06;8.40;99.90
41668;DHT22;27356;50.920;5.350;2023-04-15T05:10:32;8.40;99.90
41668;DHT22;27356;50.920;5.350;2023-04-15T05:12:58;8.50;99.90
41668;DHT22;27356;50.920;5.350;2023-04-15T05:15:24;8.50;99.90
41668;DHT22;27356;50.920;5.350;2023-04-15T05:17:49;8.50;99.90
41668;DHT22;27356;50.920;5.350;2023-04-15T05:20:16;8.40;99.90
41668;DHT22;27356;50.920;5.350;2023-04-15T05:22:42;8.50;99.90
41668;DHT22;27356;50.920;5.350;2023-04-15T05:25:08;8.60;99.90
41668;DHT22;27356;50.920;5.350;2023-04-15T05:27:34;8.90;99.90
41668;DHT22;27356;50.920;5.350;2023-04-15T05:30:00;8.90;99.90
41668;DHT22;27356;50.920;5.350;2023-04-15T05:32:25;8.90;99.90
41668;DHT22;27356;50.920;5.350;2023-04-15T05:34:51;8.70;99.90
41668;DHT22;27356;50.920;5.350;2023-04-15T05:37:17;8.70;99.90
41668;DHT22;27356;50.920;5.350;2023-04-15T05:39:45;8.80;99.90
41668;DHT22;27356;50.920;5.350;2023-04-15T05:42:11;8.80;99.90
41668;DHT22;27356;50.920;5.350;2023-04-15T05:44:37;9.00;99.90
41668;DHT22;27356;50.920;5.350;2023-04-15T05:47:03;9.00;99.90
41668;DHT22;27356;50.920;5.350;2023-04-15T05:49:30;8.90;99.90
41668;DHT22;27356;50.920;5.350;2023-04-15T05:51:56;8.90;99.90
41668;DHT22;27356;50.920;5.350;2023-04-15T05:54:22;8.90;99.90
41668;DHT22;27356;50.920;5.350;2023-04-15T05:56:48;9.00;99.90
41668;DHT22;27356;50.920;5.350;2023-04-15T05:59:14;9.20;99.90
41668;DHT22;27356;50.920;5.350;2023-04-15T06:01:39;9.30;99.90
41668;DHT22;27356;50.920;5.350;2023-04-15T06:04:05;9.40;99.90
41668;DHT22;27356;50.920;5.350;2023-04-15T06:06:31;9.20;99.90
41668;DHT22;27356;50.920;5.350;2023-04-15T06:08:59;9.10;99.90
41668;DHT22;27356;50.920;5.350;2023-04-15T06:11:25;9.10;99.90
41668;DHT22;27356;50.920;5.350;2023-04-15T06:13:51;9.10;99.90
41668;DHT22;27356;50.920;5.350;2023-04-15T06:16:17;9.10;99.90
41668;DHT22;27356;50.920;5.350;2023-04-15T06:18:43;9.20;99.90
41668;DHT22;27356;50.920;5.350;2023-04-15T06:21:09;9.20;99.90
41668;DHT22;27356;50.920;5.350;2023-04-15T06:23:35;9.50;99.90
41668;DHT22;27356;50.920;5.350;2023-04-15T06:26:01;9.60;99.90
41668;DHT22;27356;50.920;5.350;2023-04-15T06:28:27;9.80;99.90
41668;DHT22;27356;50.920;5.350;2023-04-15T06:30:53;9.90;99.90
41668;DHT22;27356;50.920;5.350;2023-04-15T06:33:19;10.10;99.90
41668;DHT22;27356;50.920;5.350;2023-04-15T06:35:45;10.20;99.90
41668;DHT22;27356;50.920;5.350;2023-04-15T06:38:11;10.40;99.90
41668;DHT22;27356;50.920;5.350;2023-04-15T06:40:37;10.80;99.90
41668;DHT22;27356;50.920;5.350;2023-04-15T06:43:03;11.10;99.40
41668;DHT22;27356;50.920;5.350;2023-04-15T06:45:29;11.10;99.00
41668;DHT22;27356;50.920;5.350;2023-04-15T06:47:55;11.20;98.50
41668;DHT22;27356;50.920;5.350;2023-04-15T06:50:21;11.50;98.30
41668;DHT22;27356;50.920;5.350;2023-04-15T06:52:47;11.80;97.60
41668;DHT22;27356;50.920;5.350;2023-04-15T06:55:14;12.00;97.20
41668;DHT22;27356;50.920;5.350;2023-04-15T06:57:40;12.50;96.20
41668;DHT22;27356;50.920;5.350;2023-04-15T07:00:06;12.90;95.40
41668;DHT22;27356;50.920;5.350;2023-04-15T07:02:32;13.50;94.50
41668;DHT22;27356;50.920;5.350;2023-04-15T07:04:58;14.20;92.90
41668;DHT22;27356;50.920;5.350;2023-04-15T07:07:24;14.80;91.70
41668;DHT22;27356;50.920;5.350;2023-04-15T07:09:50;15.20;91.30
41668;DHT22;27356;50.920;5.350;2023-04-15T07:12:18;15.60;90.90
41668;DHT22;27356;50.920;5.350;2023-04-15T07:14:44;15.50;90.00
41668;DHT22;27356;50.920;5.350;2023-04-15T07:17:10;15.90;89.90
41668;DHT22;27356;50.920;5.350;2023-04-15T07:19:37;16.10;87.40
41668;DHT22;27356;50.920;5.350;2023-04-15T07:22:03;16.40;85.20
41668;DHT22;27356;50.920;5.350;2023-04-15T07:24:29;16.40;85.60
41668;DHT22;27356;50.920;5.350;2023-04-15T07:26:55;16.50;84.60
41668;DHT22;27356;50.920;5.350;2023-04-15T07:29:24;16.10;86.30
41668;DHT22;27356;50.920;5.350;2023-04-15T07:31:50;16.50;85.60
41668;DHT22;27356;50.920;5.350;2023-04-15T07:34:16;17.00;84.00
41668;DHT22;27356;50.920;5.350;2023-04-15T07:36:42;17.10;82.80
41668;DHT22;27356;50.920;5.350;2023-04-15T07:39:08;17.20;84.00
41668;DHT22;27356;50.920;5.350;2023-04-15T07:41:33;17.60;82.40
41668;DHT22;27356;50.920;5.350;2023-04-15T07:43:59;17.60;80.60
41668;DHT22;27356;50.920;5.350;2023-04-15T07:46:25;17.40;81.10
41668;DHT22;27356;50.920;5.350;2023-04-15T07:48:52;17.60;82.20
41668;DHT22;27356;50.920;5.350;2023-04-15T07:51:19;17.60;81.40
41668;DHT22;27356;50.920;5.350;2023-04-15T07:53:46;17.60;81.30
41668;DHT22;27356;50.920;5.350;2023-04-15T07:56:12;18.00;80.00
41668;DHT22;27356;50.920;5.350;2023-04-15T07:58:37;18.40;80.50
41668;DHT22;27356;50.920;5.350;2023-04-15T08:01:03;18.60;80.10
41668;DHT22;27356;50.920;5.350;2023-04-15T08:03:29;18.40;80.00
41668;DHT22;27356;50.920;5.350;2023-04-15T08:05:55;18.40;79.20
41668;DHT22;27356;50.920;5.350;2023-04-15T08:08:21;18.20;80.40
41668;DHT22;27356;50.920;5.350;2023-04-15T08:10:48;18.50;78.70
41668;DHT22;27356;50.920;5.350;2023-04-15T08:13:14;18.30;79.30
41668;DHT22;27356;50.920;5.350;2023-04-15T08:15:39;18.30;80.10
41668;DHT22;27356;50.920;5.350;2023-04-15T08:18:05;18.70;79.10
41668;DHT22;27356;50.920;5.350;2023-04-15T08:20:31;18.10;80.40
41668;DHT22;27356;50.920;5.350;2023-04-15T08:22:57;17.30;81.80
41668;DHT22;27356;50.920;5.350;2023-04-15T08:25:23;17.30;84.10
41668;DHT22;27356;50.920;5.350;2023-04-15T08:27:54;17.30;83.20
41668;DHT22;27356;50.920;5.350;2023-04-15T08:30:20;17.30;84.60
41668;DHT22;27356;50.920;5.350;2023-04-15T08:32:46;17.00;84.00
41668;DHT22;27356;50.920;5.350;2023-04-15T08:35:12;16.60;85.80
41668;DHT22;27356;50.920;5.350;2023-04-15T08:37:38;16.80;86.20
41668;DHT22;27356;50.920;5.350;2023-04-15T08:40:04;17.10;84.90
41668;DHT22;27356;50.920;5.350;2023-04-15T08:42:31;17.10;85.80
41668;DHT22;27356;50.920;5.350;2023-04-15T08:45:03;17.30;85.60
41668;DHT22;27356;50.920;5.350;2023-04-15T08:47:30;17.70;84.30
41668;DHT22;27356;50.920;5.350;2023-04-15T08:49:58;17.70;83.80
41668;DHT22;27356;50.920;5.350;2023-04-15T08:52:29;17.40;84.60
41668;DHT22;27356;50.920;5.350;2023-04-15T08:54:56;16.90;85.50
41668;DHT22;27356;50.920;5.350;2023-04-15T08:57:28;17.10;85.00
41668;DHT22;27356;50.920;5.350;2023-04-15T08:59:57;16.40;88.00
41668;DHT22;27356;50.920;5.350;2023-04-15T09:02:23;16.50;87.20
41668;DHT22;27356;50.920;5.350;2023-04-15T09:04:50;16.70;86.50
41668;DHT22;27356;50.920;5.350;2023-04-15T09:07:16;16.70;86.40
41668;DHT22;27356;50.920;5.350;2023-04-15T09:09:42;16.90;86.40
41668;DHT22;27356;50.920;5.350;2023-04-15T09:12:10;17.20;85.00
41668;DHT22;27356;50.920;5.350;2023-04-15T09:14:39;17.20;84.20
41668;DHT22;27356;50.920;5.350;2023-04-15T09:17:05;17.00;84.10
41668;DHT22;27356;50.920;5.350;2023-04-15T09:19:31;17.10;85.40
41668;DHT22;27356;50.920;5.350;2023-04-15T09:21:58;17.20;83.00
41668;DHT22;27356;50.920;5.350;2023-04-15T09:24:25;17.10;82.50
41668;DHT22;27356;50.920;5.350;2023-04-15T09:26:58;16.80;83.10
41668;DHT22;27356;50.920;5.350;2023-04-15T09:29:24;16.90;84.00
41668;DHT22;27356;50.920;5.350;2023-04-15T09:31:51;17.10;82.50
41668;DHT22;27356;50.920;5.350;2023-04-15T09:34:17;16.80;82.10
41668;DHT22;27356;50.920;5.350;2023-04-15T09:39:12;16.70;81.90
41668;DHT22;27356;50.920;5.350;2023-04-15T09:41:39;17.10;82.70
41668;DHT22;27356;50.920;5.350;2023-04-15T09:44:05;17.20;83.00
41668;DHT22;27356;50.920;5.350;2023-04-15T09:46:44;16.80;81.80
41668;DHT22;27356;50.920;5.350;2023-04-15T09:49:10;16.80;81.90
41668;DHT22;27356;50.920;5.350;2023-04-15T09:51:36;16.80;83.10
41668;DHT22;27356;50.920;5.350;2023-04-15T09:54:03;16.30;84.60
41668;DHT22;27356;50.920;5.350;2023-04-15T09:56:38;15.80;82.80
41668;DHT22;27356;50.920;5.350;2023-04-15T09:59:08;15.60;82.00
41668;DHT22;27356;50.920;5.350;2023-04-15T10:01:34;15.50;83.70
41668;DHT22;27356;50.920;5.350;2023-04-15T10:04:04;15.50;84.80
41668;DHT22;27356;50.920;5.350;2023-04-15T10:06:30;15.60;84.70
41668;DHT22;27356;50.920;5.350;2023-04-15T10:08:57;15.50;86.00
41668;DHT22;27356;50.920;5.350;2023-04-15T10:11:27;15.80;86.20
41668;DHT22;27356;50.920;5.350;2023-04-15T10:13:55;15.90;82.90
41668;DHT22;27356;50.920;5.350;2023-04-15T10:16:23;15.60;84.50
41668;DHT22;27356;50.920;5.350;2023-04-15T10:18:54;15.50;85.20
41668;DHT22;27356;50.920;5.350;2023-04-15T10:21:21;15.60;78.10
41668;DHT22;27356;50.920;5.350;2023-04-15T10:23:48;15.50;78.60
41668;DHT22;27356;50.920;5.350;2023-04-15T10:26:15;15.30;81.00
41668;DHT22;27356;50.920;5.350;2023-04-15T10:28:42;15.10;82.90
41668;DHT22;27356;50.920;5.350;2023-04-15T10:31:11;15.20;83.40
41668;DHT22;27356;50.920;5.350;2023-04-15T10:33:38;15.10;78.20
41668;DHT22;27356;50.920;5.350;2023-04-15T10:36:04;15.20;77.60
41668;DHT22;27356;50.920;5.350;2023-04-15T10:41:25;15.20;76.40
41668;DHT22;27356;50.920;5.350;2023-04-15T10:43:53;15.20;80.40
41668;DHT22;27356;50.920;5.350;2023-04-15T10:46:21;15.30;79.70
41668;DHT22;27356;50.920;5.350;2023-04-15T10:48:52;15.00;80.10
41668;DHT22;27356;50.920;5.350;2023-04-15T10:51:30;14.90;79.00
41668;DHT22;27356;50.920;5.350;2023-04-15T10:54:00;14.70;80.50
41668;DHT22;27356;50.920;5.350;2023-04-15T10:56:28;14.70;82.50
41668;DHT22;27356;50.920;5.350;2023-04-15T10:58:54;14.70;81.10
41668;DHT22;27356;50.920;5.350;2023-04-15T11:01:21;14.90;82.60
41668;DHT22;27356;50.920;5.350;2023-04-15T11:03:49;14.70;84.20
41668;DHT22;27356;50.920;5.350;2023-04-15T11:06:15;14.40;83.00
41668;DHT22;27356;50.920;5.350;2023-04-15T11:08:58;14.30;84.90
41668;DHT22;27356;50.920;5.350;2023-04-15T11:12:07;14.20;86.40
41668;DHT22;27356;50.920;5.350;2023-04-15T11:14:36;14.30;87.90
41668;DHT22;27356;50.920;5.350;2023-04-15T11:17:03;14.40;87.40
41668;DHT22;27356;50.920;5.350;2023-04-15T11:19:37;14.50;84.00
41668;DHT22;27356;50.920;5.350;2023-04-15T11:22:10;14.60;85.30
41668;DHT22;27356;50.920;5.350;2023-04-15T11:24:36;14.70;84.60
41668;DHT22;27356;50.920;5.350;2023-04-15T11:27:02;14.60;85.10
41668;DHT22;27356;50.920;5.350;2023-04-15T11:29:29;14.70;85.20
41668;DHT22;27356;50.920;5.350;2023-04-15T11:32:07;14.90;84.40
41668;DHT22;27356;50.920;5.350;2023-04-15T11:34:33;15.20;83.90
41668;DHT22;27356;50.920;5.350;2023-04-15T11:37:03;15.10;84.10
41668;DHT22;27356;50.920;5.350;2023-04-15T11:39:29;15.20;85.00
41668;DHT22;27356;50.920;5.350;2023-04-15T11:41:55;15.30;84.70
41668;DHT22;27356;50.920;5.350;2023-04-15T11:44:20;15.40;83.20
41668;DHT22;27356;50.920;5.350;2023-04-15T11:46:46;15.10;82.70
41668;DHT22;27356;50.920;5.350;2023-04-15T11:49:25;15.30;83.40
41668;DHT22;27356;50.920;5.350;2023-04-15T11:51:51;15.30;83.10
41668;DHT22;27356;50.920;5.350;2023-04-15T11:54:20;15.50;84.00
41668;DHT22;27356;50.920;5.350;2023-04-15T11:56:50;15.40;82.00
41668;DHT22;27356;50.920;5.350;2023-04-15T11:59:16;15.30;80.80
41668;DHT22;27356;50.920;5.350;2023-04-15T12:01:42;15.20;80.50
41668;DHT22;27356;50.920;5.350;2023-04-15T12:04:14;15.10;81.90
41668;DHT22;27356;50.920;5.350;2023-04-15T12:06:42;15.20;80.20
41668;DHT22;27356;50.920;5.350;2023-04-15T12:09:11;15.30;80.90
41668;DHT22;27356;50.920;5.350;2023-04-15T12:11:42;15.30;81.70
41668;DHT22;27356;50.920;5.350;2023-04-15T12:14:22;15.10;83.40
41668;DHT22;27356;50.920;5.350;2023-04-15T12:16:50;15.00;84.30
41668;DHT22;27356;50.920;5.350;2023-04-15T12:19:23;15.30;80.60
41668;DHT22;27356;50.920;5.350;2023-04-15T12:21:50;15.30;76.50
41668;DHT22;27356;50.920;5.350;2023-04-15T12:24:20;15.20;74.60
41668;DHT22;27356;50.920;5.350;2023-04-15T12:29:15;15.00;79.00
41668;DHT22;27356;50.920;5.350;2023-04-15T12:31:54;15.00;79.70
41668;DHT22;27356;50.920;5.350;2023-04-15T12:34:35;14.90;79.20
41668;DHT22;27356;50.920;5.350;2023-04-15T12:37:03;14.90;80.10
41668;DHT22;27356;50.920;5.350;2023-04-15T12:39:35;14.90;80.70
41668;DHT22;27356;50.920;5.350;2023-04-15T12:42:03;15.00;81.30
41668;DHT22;27356;50.920;5.350;2023-04-15T12:44:29;15.00;75.90
41668;DHT22;27356;50.920;5.350;2023-04-15T12:46:55;15.10;73.80
41668;DHT22;27356;50.920;5.350;2023-04-15T12:49:21;15.30;72.20
41668;DHT22;27356;50.920;5.350;2023-04-15T12:51:53;15.30;72.80
41668;DHT22;27356;50.920;5.350;2023-04-15T12:54:19;15.30;71.00
41668;DHT22;27356;50.920;5.350;2023-04-15T12:56:47;15.10;72.00
41668;DHT22;27356;50.920;5.350;2023-04-15T12:59:13;15.10;69.50
41668;DHT22;27356;50.920;5.350;2023-04-15T13:01:39;15.00;72.00
41668;DHT22;27356;50.920;5.350;2023-04-15T13:04:05;15.10;75.70
41668;DHT22;27356;50.920;5.350;2023-04-15T13:06:31;15.20;76.70
41668;DHT22;27356;50.920;5.350;2023-04-15T13:09:01;15.20;77.30
41668;DHT22;27356;50.920;5.350;2023-04-15T13:11:28;15.10;77.30
41668;DHT22;27356;50.920;5.350;2023-04-15T13:14:05;15.30;78.10
41668;DHT22;27356;50.920;5.350;2023-04-15T13:16:32;15.50;76.90
41668;DHT22;27356;50.920;5.350;2023-04-15T13:18:59;15.70;77.00
41668;DHT22;27356;50.920;5.350;2023-04-15T13:21:26;15.80;77.10
41668;DHT22;27356;50.920;5.350;2023-04-15T13:23:51;16.00;77.80
41668;DHT22;27356;50.920;5.350;2023-04-15T13:26:17;16.00;76.50
41668;DHT22;27356;50.920;5.350;2023-04-15T13:28:43;15.80;76.60
41668;DHT22;27356;50.920;5.350;2023-04-15T13:31:09;15.60;77.70
41668;DHT22;27356;50.920;5.350;2023-04-15T13:33:34;15.60;78.70
41668;DHT22;27356;50.920;5.350;2023-04-15T13:36:00;15.80;78.20
41668;DHT22;27356;50.920;5.350;2023-04-15T13:38:26;16.00;77.10
41668;DHT22;27356;50.920;5.350;2023-04-15T13:40:52;15.90;75.90
41668;DHT22;27356;50.920;5.350;2023-04-15T13:43:17;15.70;75.50
41668;DHT22;27356;50.920;5.350;2023-04-15T13:45:43;15.70;77.50
41668;DHT22;27356;50.920;5.350;2023-04-15T13:48:09;15.40;78.20
41668;DHT22;27356;50.920;5.350;2023-04-15T13:50:35;15.30;80.50
41668;DHT22;27356;50.920;5.350;2023-04-15T13:53:01;15.50;79.60
41668;DHT22;27356;50.920;5.350;2023-04-15T13:55:26;15.40;80.70
41668;DHT22;27356;50.920;5.350;2023-04-15T13:57:52;15.20;80.80
41668;DHT22;27356;50.920;5.350;2023-04-15T14:00:18;15.20;81.80
41668;DHT22;27356;50.920;5.350;2023-04-15T14:02:44;15.30;80.60
41668;DHT22;27356;50.920;5.350;2023-04-15T14:05:10;15.40;80.20
41668;DHT22;27356;50.920;5.350;2023-04-15T14:07:36;15.40;80.40
41668;DHT22;27356;50.920;5.350;2023-04-15T14:10:02;15.50;81.40
41668;DHT22;27356;50.920;5.350;2023-04-15T14:12:28;15.70;79.90
41668;DHT22;27356;50.920;5.350;2023-04-15T14:14:54;15.90;79.30
41668;DHT22;27356;50.920;5.350;2023-04-15T14:17:20;15.80;79.80
41668;DHT22;27356;50.920;5.350;2023-04-15T14:19:45;15.70;81.40
41668;DHT22;27356;50.920;5.350;2023-04-15T14:22:11;16.00;81.80
41668;DHT22;27356;50.920;5.350;2023-04-15T14:24:37;16.00;80.20
41668;DHT22;27356;50.920;5.350;2023-04-15T14:27:02;16.00;79.50
41668;DHT22;27356;50.920;5.350;2023-04-15T14:29:28;15.80;80.10
41668;DHT22;27356;50.920;5.350;2023-04-15T14:31:54;15.70;82.10
41668;DHT22;27356;50.920;5.350;2023-04-15T14:34:21;15.60;82.20
41668;DHT22;27356;50.920;5.350;2023-04-15T14:36:50;15.70;81.80
41668;DHT22;27356;50.920;5.350;2023-04-15T14:39:15;15.70;81.90
41668;DHT22;27356;50.920;5.350;2023-04-15T14:41:41;15.90;83.20
41668;DHT22;27356;50.920;5.350;2023-04-15T14:44:07;15.70;82.40
41668;DHT22;27356;50.920;5.350;2023-04-15T14:46:34;15.50;81.80
41668;DHT22;27356;50.920;5.350;2023-04-15T14:49:00;15.40;82.40
41668;DHT22;27356;50.920;5.350;2023-04-15T14:51:25;15.50;83.20
41668;DHT22;27356;50.920;5.350;2023-04-15T14:53:51;15.60;83.00
41668;DHT22;27356;50.920;5.350;2023-04-15T14:56:17;15.70;84.00
41668;DHT22;27356;50.920;5.350;2023-04-15T14:58:42;15.70;84.90
41668;DHT22;27356;50.920;5.350;2023-04-15T15:01:09;15.80;84.30
41668;DHT22;27356;50.920;5.350;2023-04-15T15:03:34;15.80;84.40
41668;DHT22;27356;50.920;5.350;2023-04-15T15:06:00;15.70;85.30
41668;DHT22;27356;50.920;5.350;2023-04-15T15:08:26;15.90;85.00
41668;DHT22;27356;50.920;5.350;2023-04-15T15:10:52;15.90;83.60
41668;DHT22;27356;50.920;5.350;2023-04-15T15:13:17;15.90;84.40
41668;DHT22;27356;50.920;5.350;2023-04-15T15:15:43;15.70;84.10
41668;DHT22;27356;50.920;5.350;2023-04-15T15:18:09;15.60;85.10
41668;DHT22;27356;50.920;5.350;2023-04-15T15:20:35;15.70;84.30
41668;DHT22;27356;50.920;5.350;2023-04-15T15:23:01;15.60;84.70
41668;DHT22;27356;50.920;5.350;2023-04-15T15:25:28;15.40;85.30
41668;DHT22;27356;50.920;5.350;2023-04-15T15:27:54;15.40;85.70
41668;DHT22;27356;50.920;5.350;2023-04-15T15:30:20;15.60;85.10
41668;DHT22;27356;50.920;5.350;2023-04-15T15:32:46;15.80;83.00
41668;DHT22;27356;50.920;5.350;2023-04-15T15:35:11;15.60;82.80
41668;DHT22;27356;50.920;5.350;2023-04-15T15:37:37;15.50;82.90
41668;DHT22;27356;50.920;5.350;2023-04-15T15:40:04;15.60;82.40
41668;DHT22;27356;50.920;5.350;2023-04-15T15:42:31;15.50;83.10